Accueil
METAR-TAF:

METAR-TAF

Aéroports :

Mannheim, Allemagne

Aéroport de Mannheim

latitude: 49-28-21N, longitude: 008-30-56E, altitude: 100 m

Observation

Le bulletin a été fait il y a 37 minutes, à 20:20 UTC
Vent 4 kt de sud/sud-est
Température 16°C
Humidité 59%
Pression 1014 hPa
Visibilité 10 km ou plus
pas de nuages en-dessous de 1500 mètres et pas de cumulonimbus.

METAR: EDFM 242020Z 15004KT CAVOK 16/08 Q1014

Heure: 22:57 (20:57 UTC)

Prévision

Le bulletin a été fait il y a 3 heures et 57 minutes, à 17:00 UTC
Prévision valable du 24 à 18 UTC au 24 à 21 UTC
Vent 7 kt de ouest
Visibilité 10 km ou plus
pas de nuages en-dessous de 1500 mètres et pas de cumulonimbus.
Evoluant progressivement
du 24 à 18 UTC au 24 à 20 UTC
Vent 5 kt de sud/sud-ouest

TAF: EDFM 241700Z 2418/2421 26007KT CAVOK BECMG 2418/2420 20005KT

Observations et prévisions météorologiques de plus de 4000 aéroports (messages METAR et TAF).

Les stations disponibles sont représentées par des disques jaunes et rouges sur la carte.

Passer la souris dessus pour voir le nom de la station.

Cliquer dessus pour voir les observations et prévisions météorologiques.

Pour changer de carte: cliquez sur les boutons verts avec une croix noire pour zoomer, sur le bouton vert avec un tiret pour effectuer un zoom arrière, ou sur les flèches vertes pour les cartes adjacentes.


METAR-TAF: